Time;durP1;ratioP1;P1;durP2;ratioP2;P2;SDS_P1;SDS_P2;PMS_P1;PMS_P2;Temp;Humidity;BMP_temperature;BMP_pressure;BME280_temperature;BME280_humidity;BME280_pressure;Samples;Min_cycle;Max_cycle;Signal;HPM_P1;HPM_P2
2021/12/09 00:01:59;;;;;;;6.80;3.40;;;6.30;99.90;;;;;;5836202;24;20426;-84
2021/12/09 00:05:19;;;;;;;6.60;3.20;;;6.40;99.90;;;;;;5947944;23;20569;-87
2021/12/09 00:08:46;;;;;;;5.30;3.00;;;6.70;99.90;;;;;;5991691;23;20407;-87
2021/12/09 00:15:35;;;;;;;6.80;3.53;;;6.80;99.90;;;;;;6002042;23;21381;-87
2021/12/09 00:19:06;;;;;;;;;;;;;;;;;;;;;
2021/12/09 00:23:01;;;;;;;;;;;;;;;;;;;;;
2021/12/09 00:29:03;;;;;;;4.23;3.17;;;6.70;99.90;;;;;;6121772;23;20481;-86
2021/12/09 00:39:49;;;;;;;8.17;3.10;;;6.70;99.90;;;;;;6133949;23;20390;-86
2021/12/09 00:43:06;;;;;;;10.23;2.77;;;6.70;99.90;;;;;;6074767;23;20417;-87
2021/12/09 00:45:57;;;;;;;8.30;3.27;;;6.50;99.90;;;;;;6077749;23;20504;-87
2021/12/09 00:49:34;;;;;;;;;;;;;;;;;;;;;
2021/12/09 00:52:31;;;;;;;5.57;2.90;;;6.30;99.90;;;;;;6071508;23;20486;-87
2021/12/09 00:55:50;;;;;;;4.57;2.60;;;6.60;99.90;;;;;;6059346;23;20578;-86
2021/12/09 00:58:55;;;;;;;8.00;2.57;;;6.70;99.90;;;;;;6034746;23;20567;-86
2021/12/09 01:01:35;;;;;;;3.43;2.70;;;6.60;99.80;;;;;;6128342;23;20448;-86
2021/12/09 01:04:17;;;;;;;3.73;2.67;;;6.60;99.90;;;;;;6115653;23;20458;-85
2021/12/09 01:06:59;;;;;;;3.13;2.17;;;6.50;99.90;;;;;;6095660;23;20845;-87
2021/12/09 01:09:44;;;;;;;6.33;2.40;;;6.30;99.90;;;;;;6119362;23;20784;-86
2021/12/09 01:12:36;;;;;;;5.53;2.57;;;6.40;99.90;;;;;;6058235;23;20434;-86
2021/12/09 01:15:30;;;;;;;4.90;2.80;;;6.50;99.90;;;;;;6090549;23;21192;-87
2021/12/09 01:22:06;;;;;;;3.67;2.70;;;6.40;99.90;;;;;;6103849;23;20414;-85
2021/12/09 01:24:57;;;;;;;5.50;3.13;;;6.40;99.90;;;;;;5982005;23;20442;-87
2021/12/09 01:28:13;;;;;;;;;;;;;;;;;;;;;
2021/12/09 01:36:50;;;;;;;3.50;2.70;;;6.50;99.90;;;;;;6151403;23;20434;-88
2021/12/09 01:40:04;;;;;;;4.33;2.73;;;6.60;99.90;;;;;;6144378;23;20417;-85
2021/12/09 01:42:56;;;;;;;4.27;2.83;;;6.60;99.80;;;;;;6149192;23;20427;-85
2021/12/09 01:53:24;;;;;;;4.63;3.10;;;6.80;99.40;;;;;;6129415;23;20411;-85
2021/12/09 02:00:15;;;;;;;4.93;2.60;;;6.60;99.70;;;;;;6077097;23;20418;-85
2021/12/09 02:03:03;;;;;;;5.63;2.53;;;6.60;99.90;;;;;;6069156;23;20958;-86
2021/12/09 02:06:04;;;;;;;4.80;3.00;;;6.50;99.90;;;;;;6060442;23;20455;-86
2021/12/09 02:08:55;;;;;;;8.47;2.83;;;6.60;99.90;;;;;;6066834;23;20384;-85
2021/12/09 02:11:30;;;;;;;7.53;2.83;;;6.50;99.90;;;;;;6088627;23;20480;-85
2021/12/09 02:14:58;;;;;;;;;;;;;;;;;;;;;
2021/12/09 02:18:14;;;;;;;;;;;;;;;;;;;;;
2021/12/09 02:21:10;;;;;;;5.20;2.93;;;6.40;99.90;;;;;;6124007;23;20500;-85
2021/12/09 02:24:03;;;;;;;3.90;2.57;;;6.20;99.90;;;;;;6127464;23;20437;-85
2021/12/09 02:27:25;;;;;;;7.30;3.30;;;6.10;99.90;;;;;;6122202;23;20454;-87
2021/12/09 02:30:32;;;;;;;;;;;;;;;;;;;;;
2021/12/09 02:36:37;;;;;;;6.20;3.53;;;6.10;99.90;;;;;;6147219;23;20436;-87
2021/12/09 02:39:20;;;;;;;4.60;3.50;;;6.10;99.90;;;;;;6158941;23;20436;-86
2021/12/09 02:41:51;;;;;;;9.83;3.53;;;6.10;99.90;;;;;;6133895;23;20436;-87
2021/12/09 02:44:43;;;;;;;6.97;3.00;;;6.30;99.90;;;;;;6132770;23;20425;-87
2021/12/09 02:47:10;;;;;;;8.67;4.00;;;6.20;99.90;;;;;;6132279;23;20516;-87
2021/12/09 02:49:47;;;;;;;7.00;3.10;;;6.00;99.90;;;;;;6136016;23;20435;-85
2021/12/09 02:52:14;;;;;;;5.47;3.83;;;5.80;99.90;;;;;;6130921;23;20479;-87
2021/12/09 02:54:41;;;;;;;4.70;3.30;;;5.70;99.90;;;;;;6155983;23;20433;-88
2021/12/09 02:57:41;;;;;;;11.57;3.53;;;5.80;99.90;;;;;;6141856;23;20417;-87
2021/12/09 03:01:08;;;;;;;7.57;3.53;;;5.80;99.90;;;;;;6121355;23;20409;-86
2021/12/09 03:03:58;;;;;;;4.50;3.77;;;5.70;99.90;;;;;;6129848;23;20473;-87
2021/12/09 03:07:02;;;;;;;15.87;5.93;;;5.60;99.90;;;;;;6123171;23;20536;-86
2021/12/09 03:10:13;;;;;;;;;;;;;;;;;;;;;
2021/12/09 03:13:52;;;;;;;10.73;3.77;;;5.90;99.90;;;;;;6147013;23;20506;-86
2021/12/09 03:19:44;;;;;;;5.40;4.00;;;5.90;99.90;;;;;;6142421;23;21262;-86
2021/12/09 03:22:25;;;;;;;7.77;4.10;;;5.70;99.90;;;;;;6124112;23;20432;-84
2021/12/09 03:28:27;;;;;;;6.30;3.47;;;5.50;99.90;;;;;;6140044;23;20409;-84
2021/12/09 03:31:23;;;;;;;5.63;3.70;;;5.50;99.90;;;;;;6092986;23;20458;-84
2021/12/09 03:34:34;;;;;;;7.20;3.87;;;5.70;99.90;;;;;;6116510;23;20659;-85
2021/12/09 03:37:54;;;;;;;9.43;4.03;;;5.70;99.90;;;;;;6115197;23;20443;-85
2021/12/09 03:41:22;;;;;;;;;;;;;;;;;;;;;
2021/12/09 03:45:01;;;;;;;10.80;3.73;;;5.60;99.90;;;;;;6060923;23;20509;-88
2021/12/09 03:47:43;;;;;;;7.63;3.77;;;5.50;99.90;;;;;;6063634;23;20402;-84
2021/12/09 03:50:43;;;;;;;5.30;3.67;;;5.50;99.90;;;;;;6030984;23;20396;-84
2021/12/09 03:53:56;;;;;;;7.23;3.80;;;5.50;99.90;;;;;;6002690;23;20431;-85
2021/12/09 03:57:00;;;;;;;6.20;3.63;;;5.50;99.90;;;;;;6003166;23;20477;-87
2021/12/09 03:59:35;;;;;;;9.87;4.10;;;5.50;99.90;;;;;;6024735;23;20482;-85
2021/12/09 04:02:47;;;;;;;;;;;;;;;;;;;;;
2021/12/09 04:05:43;;;;;;;6.73;3.50;;;5.30;99.90;;;;;;6052168;23;20469;-88
2021/12/09 04:08:11;;;;;;;7.77;4.10;;;5.10;99.90;;;;;;6052598;23;20416;-86
2021/12/09 04:10:53;;;;;;;4.30;3.50;;;5.20;99.90;;;;;;6017355;23;20440;-88
2021/12/09 04:17:13;;;;;;;13.30;3.83;;;5.20;99.90;;;;;;6061166;23;20433;-88
2021/12/09 04:23:13;;;;;;;5.73;4.30;;;5.30;99.90;;;;;;6046899;23;20416;-88
2021/12/09 04:29:30;;;;;;;5.27;3.80;;;5.50;99.90;;;;;;6172708;23;20401;-90
2021/12/09 04:32:28;;;;;;;8.10;4.00;;;5.30;99.90;;;;;;6149318;23;20412;-88
2021/12/09 04:35:39;;;;;;;8.67;3.97;;;5.40;99.90;;;;;;6143552;23;20648;-88
2021/12/09 04:38:45;;;;;;;4.47;3.80;;;5.30;99.90;;;;;;6174707;23;20399;-88
2021/12/09 04:42:08;;;;;;;;;;;;;;;;;;;;;
2021/12/09 04:45:40;;;;;;;11.03;4.90;;;5.20;99.90;;;;;;6160742;23;20462;-87
2021/12/09 04:48:59;;;;;;;5.57;4.47;;;5.20;99.90;;;;;;6124790;23;20456;-86
2021/12/09 04:55:29;;;;;;;5.43;3.77;;;5.20;99.90;;;;;;5993684;23;20455;-87
2021/12/09 04:58:24;;;;;;;7.50;4.63;;;5.20;99.90;;;;;;5978004;23;20585;-88
2021/12/09 05:01:35;;;;;;;14.93;4.10;;;5.20;99.90;;;;;;5867446;24;20397;-88
2021/12/09 05:10:03;;;;;;;10.43;5.30;;;4.90;99.90;;;;;;6157153;23;20432;-87
2021/12/09 05:13:10;;;;;;;;;;;;;;;;;;;;;
2021/12/09 05:16:11;;;;;;;4.40;4.00;;;4.90;99.90;;;;;;6128332;23;20449;-88
2021/12/09 05:22:23;;;;;;;6.57;4.10;;;5.00;99.90;;;;;;6061557;23;20407;-87
2021/12/09 05:25:29;;;;;;;7.30;3.50;;;4.90;99.90;;;;;;6093915;23;20492;-88
2021/12/09 05:28:30;;;;;;;5.30;3.50;;;5.00;99.90;;;;;;5992187;23;20403;-88
2021/12/09 05:35:05;;;;;;;8.07;4.20;;;4.80;99.90;;;;;;5924870;24;20449;-87
2021/12/09 05:37:49;;;;;;;7.30;3.67;;;4.60;99.90;;;;;;5940418;23;20519;-88
2021/12/09 05:40:37;;;;;;;7.50;3.20;;;4.80;99.90;;;;;;6010653;23;20955;-88
2021/12/09 05:43:56;;;;;;;7.53;4.60;;;4.90;99.90;;;;;;6010615;23;20432;-89
2021/12/09 05:47:12;;;;;;;4.57;3.87;;;4.80;99.90;;;;;;6010161;23;20479;-88
2021/12/09 05:50:16;;;;;;;4.70;3.77;;;4.70;99.90;;;;;;6009690;23;20463;-89
2021/12/09 05:53:10;;;;;;;5.97;3.90;;;4.70;99.90;;;;;;6010054;23;20442;-89
2021/12/09 05:56:29;;;;;;;5.20;3.87;;;4.80;99.90;;;;;;5983309;23;20901;-86
2021/12/09 05:59:20;;;;;;;8.83;4.27;;;4.90;99.90;;;;;;6010753;23;20460;-86
2021/12/09 06:02:13;;;;;;;6.70;4.20;;;5.00;99.90;;;;;;6010980;23;20446;-87
2021/12/09 06:04:57;;;;;;;4.80;3.93;;;5.10;99.90;;;;;;6081298;23;20846;-86
2021/12/09 06:08:26;;;;;;;4.10;3.20;;;4.80;99.90;;;;;;6107446;23;20523;-87
2021/12/09 06:11:28;;;;;;;9.40;3.63;;;5.00;99.90;;;;;;6104659;23;20638;-87
2021/12/09 06:14:23;;;;;;;4.07;3.60;;;4.90;99.90;;;;;;6104706;23;20415;-86
2021/12/09 06:17:47;;;;;;;6.40;3.47;;;5.10;99.90;;;;;;6100944;23;20428;-87
2021/12/09 06:21:05;;;;;;;4.37;3.60;;;5.20;99.90;;;;;;6101503;23;20422;-86
2021/12/09 06:24:21;;;;;;;6.50;3.83;;;5.20;99.90;;;;;;6099071;23;20411;-88
2021/12/09 06:27:51;;;;;;;10.83;3.67;;;5.20;99.90;;;;;;5980638;23;20963;-86
2021/12/09 06:30:41;;;;;;;6.47;3.97;;;5.00;99.90;;;;;;5983771;23;20419;-87
2021/12/09 06:36:18;;;;;;;7.07;3.17;;;4.90;99.90;;;;;;6152332;23;20439;-89
2021/12/09 06:38:52;;;;;;;7.60;3.50;;;4.80;99.90;;;;;;6134318;23;20436;-89
2021/12/09 06:41:36;;;;;;;8.77;4.47;;;4.60;99.90;;;;;;6119825;23;20472;-89
2021/12/09 06:44:08;;;;;;;5.90;3.50;;;4.50;99.90;;;;;;6131661;23;20437;-87
2021/12/09 06:47:04;;;;;;;5.27;3.43;;;4.70;99.90;;;;;;6127887;23;20447;-90
2021/12/09 06:50:01;;;;;;;8.90;4.13;;;5.00;99.90;;;;;;6113209;23;21178;-88
2021/12/09 06:52:38;;;;;;;6.50;3.77;;;4.90;99.90;;;;;;6136894;23;20442;-85
2021/12/09 06:55:08;;;;;;;7.20;3.37;;;5.00;99.90;;;;;;6132676;23;20506;-87
2021/12/09 06:58:01;;;;;;;6.83;3.90;;;4.80;99.90;;;;;;6130986;23;20406;-88
2021/12/09 07:00:46;;;;;;;3.93;3.40;;;4.90;99.90;;;;;;6070980;23;20822;-88
2021/12/09 07:03:58;;;;;;;;;;;;;;;;;;;;;
2021/12/09 07:07:06;;;;;;;7.83;4.17;;;5.00;99.90;;;;;;6040252;23;20458;-90
2021/12/09 07:10:33;;;;;;;4.70;3.63;;;4.90;99.90;;;;;;6039358;23;20418;-88
2021/12/09 07:16:44;;;;;;;6.80;3.60;;;4.80;99.90;;;;;;6128787;23;20444;-88
2021/12/09 07:19:21;;;;;;;4.77;3.17;;;4.70;99.90;;;;;;6093192;23;20426;-87
2021/12/09 07:29:04;;;;;;;5.83;3.73;;;5.00;99.90;;;;;;6121389;23;20475;-88
2021/12/09 07:31:40;;;;;;;9.30;4.07;;;5.00;99.90;;;;;;6101992;23;20409;-89
2021/12/09 07:42:21;;;;;;;;;;;;;;;;;;;;;
2021/12/09 07:45:58;;;;;;;;;;;;;;;;;;;;;
2021/12/09 07:48:57;;;;;;;6.50;3.73;;;4.80;99.90;;;;;;6120919;23;20405;-90
2021/12/09 07:55:31;;;;;;;6.37;3.80;;;4.70;99.90;;;;;;6130830;23;20390;-89
2021/12/09 08:02:52;;;;;;;;;;;;;;;;;;;;;
2021/12/09 08:05:48;;;;;;;6.60;4.30;;;4.80;99.90;;;;;;5912814;24;20472;-89
2021/12/09 08:08:58;;;;;;;8.60;4.23;;;5.00;99.90;;;;;;5904682;24;20439;-88
2021/12/09 08:11:57;;;;;;;8.67;4.47;;;5.00;99.90;;;;;;5915350;23;20434;-88
2021/12/09 08:14:48;;;;;;;7.93;4.33;;;5.00;99.90;;;;;;6045264;23;20468;-89
2021/12/09 08:21:35;;;;;;;4.73;4.30;;;4.80;99.90;;;;;;5948624;24;20421;-89
2021/12/09 08:27:55;;;;;;;9.80;4.10;;;4.90;99.90;;;;;;5948316;24;20455;-87
2021/12/09 08:31:14;;;;;;;7.00;4.83;;;4.90;99.90;;;;;;5858965;24;20416;-87
2021/12/09 08:33:56;;;;;;;6.33;5.03;;;4.90;99.90;;;;;;5958230;23;20457;-87
2021/12/09 08:36:40;;;;;;;5.20;4.67;;;4.80;99.90;;;;;;6046830;23;20425;-87
2021/12/09 08:39:08;;;;;;;9.33;5.00;;;4.80;99.90;;;;;;6042983;23;20457;-89
2021/12/09 08:41:34;;;;;;;9.00;5.63;;;4.80;99.90;;;;;;6045075;23;20488;-86
2021/12/09 08:44:01;;;;;;;7.40;4.80;;;4.80;99.90;;;;;;6067795;23;20543;-86
2021/12/09 08:46:28;;;;;;;6.37;5.17;;;4.90;99.90;;;;;;6093878;23;20490;-89
2021/12/09 08:48:56;;;;;;;10.10;5.90;;;5.00;99.90;;;;;;6098294;23;20490;-87
2021/12/09 08:51:23;;;;;;;7.23;4.87;;;5.10;99.90;;;;;;6098728;23;20411;-88
2021/12/09 08:53:50;;;;;;;9.57;5.50;;;5.00;99.90;;;;;;6097992;23;20440;-89
2021/12/09 08:56:17;;;;;;;9.50;5.33;;;5.00;99.90;;;;;;6098323;23;20421;-86
2021/12/09 08:58:44;;;;;;;10.07;4.53;;;5.00;99.90;;;;;;6098613;23;20920;-88
2021/12/09 09:02:01;;;;;;;11.60;6.13;;;5.00;99.90;;;;;;6098340;23;20494;-88
2021/12/09 09:08:16;;;;;;;8.87;4.97;;;5.00;99.90;;;;;;5981063;24;20463;-87
2021/12/09 09:11:10;;;;;;;6.97;5.00;;;4.90;99.90;;;;;;5949011;24;20496;-89
2021/12/09 09:13:50;;;;;;;7.97;5.83;;;5.00;99.90;;;;;;5951580;24;20480;-89
2021/12/09 09:16:25;;;;;;;7.63;5.00;;;5.20;99.90;;;;;;6022941;23;20430;-89
2021/12/09 09:18:57;;;;;;;8.43;5.90;;;5.30;99.90;;;;;;6089673;23;20492;-90
2021/12/09 09:21:34;;;;;;;11.00;5.93;;;5.20;99.90;;;;;;6082199;23;20431;-87
2021/12/09 09:24:30;;;;;;;6.00;5.23;;;5.30;99.90;;;;;;5977698;24;20432;-88
2021/12/09 09:27:17;;;;;;;9.90;5.80;;;5.30;99.90;;;;;;5956145;24;20459;-85
2021/12/09 09:34:02;;;;;;;4.73;3.93;;;7.00;99.90;;;;;;5896787;24;20435;-86
2021/12/09 09:41:02;;;;;;;;;;;;;;;;;;;;;
2021/12/09 09:44:47;;;;;;;6.90;4.20;;;9.70;95.10;;;;;;6098717;23;20411;-87
2021/12/09 09:48:36;;;;;;;8.07;3.87;;;9.50;94.50;;;;;;6095415;23;20471;-89
2021/12/09 09:51:56;;;;;;;6.73;3.67;;;9.00;95.30;;;;;;6058599;23;20396;-87
2021/12/09 09:54:43;;;;;;;5.03;4.27;;;9.20;95.20;;;;;;6096074;23;20781;-88
2021/12/09 09:57:10;;;;;;;6.97;5.07;;;8.70;95.10;;;;;;6097555;23;20422;-87
2021/12/09 10:00:02;;;;;;;6.77;4.20;;;8.00;96.00;;;;;;6099072;23;20434;-87
2021/12/09 10:03:29;;;;;;;;;;;;;;;;;;;;;
2021/12/09 10:07:09;;;;;;;7.10;4.40;;;7.20;99.00;;;;;;6096341;23;20407;-87
2021/12/09 10:19:30;;;;;;;6.67;4.10;;;6.80;99.90;;;;;;6136487;23;20940;-85
2021/12/09 10:22:21;;;;;;;6.80;4.77;;;6.70;99.90;;;;;;6106998;23;20412;-84
2021/12/09 10:25:37;;;;;;;8.73;3.70;;;6.80;99.90;;;;;;6104641;23;21326;-84
2021/12/09 10:28:33;;;;;;;8.60;4.83;;;6.90;99.90;;;;;;6129649;23;20483;-84
2021/12/09 10:31:17;;;;;;;6.43;4.60;;;6.80;99.90;;;;;;6119533;23;20446;-85
2021/12/09 10:38:29;;;;;;;8.70;4.77;;;7.00;99.90;;;;;;6145341;23;21237;-86
2021/12/09 10:42:12;;;;;;;;;;;;;;;;;;;;;
2021/12/09 10:45:13;;;;;;;7.60;4.40;;;7.40;99.90;;;;;;6076636;23;20437;-85
2021/12/09 10:48:31;;;;;;;8.00;4.27;;;7.50;99.90;;;;;;6087388;23;20469;-86
2021/12/09 10:53:46;;;;;;;4.80;3.30;;;7.50;99.40;;;;;;6172948;23;20414;-85
2021/12/09 10:56:24;;;;;;;7.10;2.90;;;7.40;98.60;;;;;;6161467;23;20411;-83
2021/12/09 10:59:05;;;;;;;6.73;3.70;;;7.40;98.70;;;;;;6099504;23;20432;-85
2021/12/09 11:02:05;;;;;;;8.80;3.47;;;7.30;98.70;;;;;;6111020;23;20409;-85
2021/12/09 11:04:32;;;;;;;5.70;3.23;;;7.40;98.80;;;;;;6147040;23;20437;-84
2021/12/09 11:06:58;;;;;;;7.43;3.40;;;7.20;98.90;;;;;;6119431;23;20453;-84
2021/12/09 11:09:25;;;;;;;5.80;3.90;;;7.40;99.00;;;;;;6118726;23;20721;-84
2021/12/09 11:11:56;;;;;;;6.37;3.10;;;7.40;98.80;;;;;;6147875;23;20419;-85
2021/12/09 11:14:27;;;;;;;7.60;3.73;;;7.40;98.60;;;;;;6115800;23;20436;-83
2021/12/09 11:17:03;;;;;;;9.80;3.00;;;7.20;99.00;;;;;;6115671;23;20994;-83
2021/12/09 11:22:03;;;;;;;4.53;3.33;;;7.30;99.20;;;;;;6142750;23;20417;-84
2021/12/09 11:24:35;;;;;;;5.77;3.00;;;7.30;99.10;;;;;;6134037;23;20444;-86
2021/12/09 11:27:23;;;;;;;5.80;3.70;;;7.20;99.30;;;;;;6111025;23;20449;-83
2021/12/09 11:29:53;;;;;;;8.93;3.70;;;7.20;99.20;;;;;;6111697;23;20395;-84
2021/12/09 11:32:46;;;;;;;7.30;2.73;;;7.30;99.10;;;;;;6143748;23;20408;-84
2021/12/09 11:35:50;;;;;;;4.80;3.20;;;7.30;98.70;;;;;;5977039;23;20453;-84
2021/12/09 11:39:07;;;;;;;5.67;3.23;;;7.40;98.90;;;;;;5975125;23;20913;-85
2021/12/09 11:41:37;;;;;;;6.90;3.50;;;7.10;99.20;;;;;;5971757;23;20417;-84
2021/12/09 11:44:08;;;;;;;6.80;3.70;;;7.20;99.20;;;;;;5972319;23;20451;-83
2021/12/09 11:46:43;;;;;;;6.70;3.23;;;7.10;99.40;;;;;;5994152;23;20418;-85
2021/12/09 11:49:10;;;;;;;3.37;2.40;;;7.30;99.00;;;;;;5969664;23;20485;-85
2021/12/09 11:51:38;;;;;;;6.70;2.37;;;7.40;98.80;;;;;;5994926;23;20912;-85
2021/12/09 11:54:07;;;;;;;7.23;2.80;;;7.50;98.50;;;;;;6110318;23;20431;-86
2021/12/09 12:13:07;;;;;;;6.83;2.90;;;7.30;98.40;;;;;;6144755;23;20418;-87
2021/12/09 12:24:40;;;;;;;6.90;2.83;;;7.60;97.50;;;;;;6142762;23;20436;-85
2021/12/09 12:34:50;;;;;;;4.67;2.30;;;7.60;97.90;;;;;;6052679;23;20467;-86
2021/12/09 12:40:56;;;;;;;9.67;3.60;;;7.60;97.90;;;;;;6138685;23;20965;-85
2021/12/09 12:43:35;;;;;;;5.90;2.80;;;7.60;98.00;;;;;;6120111;23;20418;-86
2021/12/09 12:50:23;;;;;;;3.43;2.30;;;7.80;97.80;;;;;;6058328;23;20469;-84
2021/12/09 12:53:41;;;;;;;4.13;2.43;;;7.70;97.50;;;;;;6109992;23;20422;-88
2021/12/09 12:56:13;;;;;;;3.53;2.50;;;7.60;97.50;;;;;;6119571;23;21038;-85
2021/12/09 12:59:15;;;;;;;3.67;2.63;;;7.70;97.70;;;;;;6144355;23;20427;-85
2021/12/09 13:02:03;;;;;;;3.17;2.10;;;7.60;97.70;;;;;;6144271;23;20387;-85
2021/12/09 13:05:09;;;;;;;4.43;2.87;;;7.70;97.50;;;;;;6121134;23;20484;-86
2021/12/09 13:16:47;;;;;;;3.47;2.20;;;7.50;97.70;;;;;;6142654;23;20397;-83
2021/12/09 13:25:36;;;;;;;4.53;2.60;;;7.50;98.00;;;;;;6020829;23;20441;-85
2021/12/09 13:28:09;;;;;;;4.73;1.83;;;7.60;98.00;;;;;;6111947;23;20508;-84
2021/12/09 13:51:18;;;;;;;3.97;2.20;;;7.50;98.10;;;;;;6119257;23;20821;-82
2021/12/09 13:54:26;;;;;;;4.47;2.30;;;7.60;97.50;;;;;;6119349;23;20429;-85
2021/12/09 13:57:08;;;;;;;6.47;3.00;;;7.60;97.80;;;;;;6122250;23;20487;-82
2021/12/09 13:59:45;;;;;;;5.33;2.43;;;7.70;97.80;;;;;;6149367;23;20502;-83
2021/12/09 14:03:07;;;;;;;2.07;1.90;;;7.70;97.40;;;;;;6120287;23;20457;-85
2021/12/09 14:06:37;;;;;;;;;;;;;;;;;;;;;
2021/12/09 14:09:11;;;;;;;2.87;2.43;;;7.70;97.60;;;;;;6143544;23;20448;-84
2021/12/09 14:11:47;;;;;;;1.97;1.77;;;7.70;97.40;;;;;;6119455;23;20414;-84
2021/12/09 14:15:22;;;;;;;1.70;1.60;;;7.70;97.30;;;;;;6006641;23;20444;-83
2021/12/09 14:21:29;;;;;;;1.70;1.53;;;7.50;98.40;;;;;;5945978;24;20497;-85
2021/12/09 14:24:26;;;;;;;3.07;1.90;;;7.50;98.60;;;;;;5958783;24;20506;-83
2021/12/09 14:27:16;;;;;;;1.93;1.73;;;7.60;98.60;;;;;;5934865;24;20483;-84
2021/12/09 14:29:55;;;;;;;2.10;1.90;;;7.70;98.50;;;;;;5957183;24;20975;-82
2021/12/09 14:32:32;;;;;;;2.50;1.83;;;7.70;98.10;;;;;;5982221;23;20584;-83
2021/12/09 14:35:08;;;;;;;2.00;1.80;;;7.60;98.30;;;;;;6067768;23;20438;-85
2021/12/09 14:37:38;;;;;;;1.53;1.43;;;7.40;99.00;;;;;;6121310;23;20432;-87
2021/12/09 14:40:43;;;;;;;1.80;1.70;;;7.20;99.90;;;;;;6143890;23;20427;-86
2021/12/09 14:43:31;;;;;;;1.83;1.50;;;7.00;99.90;;;;;;6142568;23;20931;-85
2021/12/09 14:46:11;;;;;;;1.87;1.77;;;6.80;99.90;;;;;;6120432;23;20442;-85
2021/12/09 14:48:50;;;;;;;1.87;1.47;;;7.00;99.90;;;;;;6134987;23;20510;-84
2021/12/09 14:51:22;;;;;;;1.63;1.50;;;7.40;99.90;;;;;;6138883;23;20526;-84
2021/12/09 14:53:51;;;;;;;1.77;1.43;;;7.50;99.90;;;;;;6115733;23;20446;-84
2021/12/09 14:56:53;;;;;;;2.47;1.50;;;7.40;99.90;;;;;;6116548;23;20451;-82
2021/12/09 14:59:34;;;;;;;1.80;1.50;;;7.50;99.90;;;;;;6117236;23;20433;-83
2021/12/09 15:02:07;;;;;;;1.73;1.63;;;7.50;99.90;;;;;;6128455;23;20433;-85
2021/12/09 15:04:51;;;;;;;3.63;2.40;;;7.50;99.90;;;;;;6124733;23;20435;-84
2021/12/09 15:07:31;;;;;;;3.83;2.10;;;7.60;99.90;;;;;;6122154;23;20733;-87
2021/12/09 15:10:11;;;;;;;1.53;1.37;;;7.50;99.90;;;;;;6118071;23;20450;-85
2021/12/09 15:12:40;;;;;;;1.93;1.83;;;7.60;99.90;;;;;;6144781;23;20422;-84
2021/12/09 15:15:16;;;;;;;2.90;2.20;;;7.50;99.90;;;;;;6119206;23;20434;-83
2021/12/09 15:17:59;;;;;;;1.93;1.80;;;7.40;99.90;;;;;;6118381;23;20435;-85
2021/12/09 15:20:42;;;;;;;2.93;1.93;;;7.60;99.90;;;;;;6143324;23;20424;-87
2021/12/09 15:23:31;;;;;;;2.40;1.90;;;7.70;99.90;;;;;;6134759;23;20406;-83
2021/12/09 15:25:58;;;;;;;2.67;1.80;;;7.60;99.90;;;;;;6133724;23;20403;-83
2021/12/09 15:28:25;;;;;;;3.93;2.30;;;7.70;99.90;;;;;;6098432;23;20457;-84
2021/12/09 15:30:58;;;;;;;2.97;2.57;;;7.60;99.90;;;;;;6138489;23;20430;-85
2021/12/09 15:33:41;;;;;;;2.20;2.00;;;7.60;99.90;;;;;;6142269;23;20420;-85
2021/12/09 15:36:14;;;;;;;2.00;1.80;;;7.80;99.90;;;;;;6119707;23;20428;-85
2021/12/09 15:39:07;;;;;;;1.63;1.53;;;7.70;99.90;;;;;;6143114;23;20623;-84
2021/12/09 15:41:36;;;;;;;2.00;1.70;;;7.70;99.90;;;;;;6143676;23;20417;-84
2021/12/09 15:44:16;;;;;;;2.30;1.87;;;7.70;99.90;;;;;;6115632;23;20445;-86
2021/12/09 15:51:49;;;;;;;2.93;2.03;;;7.70;99.90;;;;;;6137938;23;20395;-84
2021/12/09 15:54:30;;;;;;;2.10;1.57;;;7.80;99.50;;;;;;6082007;23;20734;-85
2021/12/09 15:57:31;;;;;;;1.37;1.27;;;7.60;99.60;;;;;;6118928;23;20416;-84
2021/12/09 16:00:36;;;;;;;3.10;1.20;;;7.60;99.90;;;;;;6121775;23;21033;-84
2021/12/09 16:03:07;;;;;;;2.73;1.80;;;7.60;99.90;;;;;;6144898;23;20425;-84
2021/12/09 16:05:36;;;;;;;2.77;1.43;;;7.60;99.90;;;;;;6143876;23;20446;-84
2021/12/09 16:08:18;;;;;;;3.43;2.47;;;7.50;99.90;;;;;;6122004;23;20894;-83
2021/12/09 16:10:50;;;;;;;2.43;1.90;;;7.50;99.90;;;;;;6119843;23;20436;-84
2021/12/09 16:13:44;;;;;;;1.60;1.43;;;7.40;99.90;;;;;;6122027;23;21087;-83
2021/12/09 16:16:14;;;;;;;1.40;1.27;;;7.50;99.90;;;;;;6145292;23;20431;-84
2021/12/09 16:18:59;;;;;;;1.33;1.23;;;7.50;99.90;;;;;;6119712;23;20509;-84
2021/12/09 16:24:15;;;;;;;1.70;1.53;;;7.50;99.90;;;;;;6132699;23;20463;-83
2021/12/09 16:26:50;;;;;;;1.60;1.40;;;7.50;99.90;;;;;;6105794;23;20451;-84
2021/12/09 16:29:20;;;;;;;2.33;1.20;;;7.30;99.90;;;;;;6106015;23;20468;-84
2021/12/09 16:31:55;;;;;;;2.77;1.73;;;7.40;99.90;;;;;;6140015;23;20417;-83
2021/12/09 16:34:30;;;;;;;3.20;1.47;;;7.10;99.90;;;;;;6119444;23;20432;-84
2021/12/09 16:37:08;;;;;;;2.50;1.30;;;7.40;99.90;;;;;;6120697;23;20450;-82
2021/12/09 16:39:39;;;;;;;2.10;1.90;;;7.50;99.90;;;;;;6121469;23;20414;-84
2021/12/09 16:42:14;;;;;;;1.70;1.40;;;7.40;99.90;;;;;;6142133;23;20444;-84
2021/12/09 16:44:41;;;;;;;1.33;1.23;;;7.40;99.90;;;;;;6138433;23;20440;-84
2021/12/09 16:47:09;;;;;;;2.30;1.93;;;7.30;99.90;;;;;;6140591;23;20436;-83
2021/12/09 16:49:36;;;;;;;1.83;1.33;;;7.30;99.90;;;;;;6137382;23;20454;-86
2021/12/09 16:52:03;;;;;;;2.00;1.37;;;7.30;99.90;;;;;;6143635;23;20413;-86
2021/12/09 16:58:07;;;;;;;2.00;1.50;;;7.40;99.90;;;;;;6171983;23;20385;-86
2021/12/09 17:00:59;;;;;;;1.67;1.40;;;7.20;99.90;;;;;;6130470;23;20416;-84
2021/12/09 17:03:26;;;;;;;1.80;1.37;;;7.20;99.90;;;;;;6149312;23;20510;-84
2021/12/09 17:05:53;;;;;;;1.60;1.43;;;7.20;99.90;;;;;;6120578;23;20438;-85
2021/12/09 17:08:20;;;;;;;3.87;1.73;;;7.30;99.90;;;;;;6120063;23;20454;-83
2021/12/09 17:10:47;;;;;;;1.70;1.60;;;7.20;99.90;;;;;;6145389;23;20413;-84
2021/12/09 17:16:05;;;;;;;2.20;2.00;;;7.20;99.90;;;;;;6132015;23;20450;-85
2021/12/09 17:18:32;;;;;;;2.47;2.27;;;7.20;99.90;;;;;;6144323;23;20426;-85
2021/12/09 17:20:59;;;;;;;2.57;2.37;;;7.20;99.90;;;;;;6144389;23;20767;-87
2021/12/09 17:23:26;;;;;;;3.27;2.47;;;7.30;99.90;;;;;;6135579;23;20495;-84
2021/12/09 17:25:53;;;;;;;4.07;2.60;;;7.10;99.90;;;;;;6112175;23;20448;-86
2021/12/09 17:28:21;;;;;;;2.40;1.90;;;7.30;99.90;;;;;;6137696;23;20446;-85
2021/12/09 17:30:49;;;;;;;2.20;2.00;;;7.30;99.90;;;;;;6137133;23;20449;-85
2021/12/09 17:33:21;;;;;;;2.77;2.57;;;7.50;99.90;;;;;;6115324;23;20490;-86
2021/12/09 17:35:48;;;;;;;3.10;2.10;;;7.40;99.90;;;;;;6117227;23;20922;-86
2021/12/09 17:38:15;;;;;;;2.17;1.97;;;7.40;99.90;;;;;;6116806;23;20426;-87
2021/12/09 17:40:42;;;;;;;3.30;2.43;;;7.40;99.90;;;;;;6116364;23;20921;-87
2021/12/09 17:43:09;;;;;;;2.60;2.30;;;7.40;99.90;;;;;;6115855;23;20512;-84
2021/12/09 17:45:37;;;;;;;4.00;2.50;;;7.40;99.90;;;;;;6117535;23;20919;-86
2021/12/09 17:48:05;;;;;;;3.50;2.17;;;7.30;99.90;;;;;;6140905;23;20495;-86
2021/12/09 17:50:34;;;;;;;3.50;2.53;;;7.30;99.90;;;;;;6118302;23;20402;-86
2021/12/09 17:53:06;;;;;;;2.60;2.37;;;7.20;99.90;;;;;;6114288;23;20441;-85
2021/12/09 17:55:36;;;;;;;2.47;2.27;;;7.40;99.90;;;;;;6113912;23;20433;-85
2021/12/09 17:58:06;;;;;;;3.00;2.70;;;7.40;99.90;;;;;;6114190;23;20422;-84
2021/12/09 18:00:33;;;;;;;2.50;2.10;;;7.30;99.90;;;;;;6139909;23;21005;-85
2021/12/09 18:03:00;;;;;;;2.80;2.60;;;7.40;99.90;;;;;;6139721;23;20780;-83
2021/12/09 18:05:29;;;;;;;4.10;3.03;;;7.30;99.90;;;;;;6115067;23;20433;-85
2021/12/09 18:08:00;;;;;;;2.67;2.43;;;7.30;99.90;;;;;;6114961;23;20413;-85
2021/12/09 18:10:29;;;;;;;6.77;3.83;;;7.20;99.90;;;;;;6113673;23;20418;-83
2021/12/09 18:12:57;;;;;;;3.07;2.77;;;7.20;99.90;;;;;;6113674;23;20506;-84
2021/12/09 18:15:33;;;;;;;2.40;2.20;;;7.20;99.90;;;;;;6114463;23;20509;-85
2021/12/09 18:18:02;;;;;;;2.20;2.10;;;7.30;99.90;;;;;;6142065;23;20387;-84
2021/12/09 18:20:29;;;;;;;2.90;2.60;;;7.40;99.90;;;;;;6116413;23;20426;-84
2021/12/09 18:22:56;;;;;;;2.10;1.87;;;7.30;99.90;;;;;;6110213;23;20651;-84
2021/12/09 18:25:24;;;;;;;2.33;2.00;;;7.40;99.90;;;;;;6111167;23;20503;-84
2021/12/09 18:28:06;;;;;;;2.60;1.83;;;7.30;99.90;;;;;;6107498;23;20402;-84
2021/12/09 18:30:35;;;;;;;4.03;2.27;;;7.30;99.90;;;;;;6106627;23;21005;-83
2021/12/09 18:33:04;;;;;;;3.23;2.70;;;7.30;99.90;;;;;;6114424;23;20425;-83
2021/12/09 18:35:34;;;;;;;2.50;2.30;;;7.30;99.90;;;;;;6119017;23;20476;-83
2021/12/09 18:38:04;;;;;;;2.50;2.30;;;7.10;99.90;;;;;;6115737;23;21295;-84
2021/12/09 18:40:36;;;;;;;2.83;2.60;;;7.10;99.90;;;;;;6117487;23;20429;-84
2021/12/09 18:43:06;;;;;;;2.87;2.50;;;7.20;99.90;;;;;;6115189;23;20659;-84
2021/12/09 18:45:35;;;;;;;3.87;3.10;;;7.20;99.90;;;;;;6118536;23;20596;-84
2021/12/09 18:48:05;;;;;;;3.93;2.63;;;7.50;99.90;;;;;;6117269;23;20438;-84
2021/12/09 18:50:37;;;;;;;5.47;3.23;;;7.40;99.90;;;;;;6123392;23;20474;-85
2021/12/09 18:53:07;;;;;;;3.47;2.63;;;7.40;99.90;;;;;;6123328;23;20429;-85
2021/12/09 18:55:38;;;;;;;2.30;2.10;;;7.40;99.90;;;;;;6121215;23;20484;-84
2021/12/09 18:58:09;;;;;;;2.37;2.27;;;7.30;99.90;;;;;;6122425;23;20415;-87
2021/12/09 19:00:39;;;;;;;2.40;1.97;;;7.30;99.90;;;;;;6145914;23;20430;-83
2021/12/09 19:03:08;;;;;;;2.87;2.50;;;7.30;99.90;;;;;;6118853;23;20442;-85
2021/12/09 19:05:46;;;;;;;3.87;2.73;;;7.30;99.90;;;;;;6144009;23;20470;-84